Time;durP1;ratioP1;P1;durP2;ratioP2;P2;SDS_P1;SDS_P2;PMS_P1;PMS_P2;Temp;Humidity;BMP_temperature;BMP_pressure;BME280_temperature;BME280_humidity;BME280_pressure;Samples;Min_cycle;Max_cycle;Signal;HPM_P1;HPM_P2
2022/02/16 00:00:06;;;;;;;5.15;1.60;;;6.90;99.90;;;;;;5106284;28;20220;-89
2022/02/16 00:02:33;;;;;;;6.80;1.67;;;6.90;99.90;;;;;;5112153;28;20192;-88
2022/02/16 00:05:01;;;;;;;5.15;1.63;;;6.90;99.90;;;;;;5104297;28;20208;-89
2022/02/16 00:07:28;;;;;;;7.25;1.50;;;6.90;99.90;;;;;;5110655;28;20207;-89
2022/02/16 00:09:57;;;;;;;4.00;1.40;;;6.90;99.90;;;;;;5115358;28;20231;-89
2022/02/16 00:12:23;;;;;;;4.70;1.50;;;6.90;99.90;;;;;;5107727;28;20206;-89
2022/02/16 00:14:50;;;;;;;7.82;2.30;;;6.80;99.90;;;;;;5104695;28;20236;-89
2022/02/16 00:17:17;;;;;;;3.63;1.63;;;6.80;99.90;;;;;;5113349;28;20223;-89
2022/02/16 00:19:44;;;;;;;4.50;1.77;;;6.80;99.90;;;;;;5107031;28;20211;-88
2022/02/16 00:22:11;;;;;;;3.63;1.65;;;6.50;99.90;;;;;;5109357;28;20236;-89
2022/02/16 00:24:38;;;;;;;3.85;1.70;;;6.70;99.90;;;;;;5116873;28;20203;-88
2022/02/16 00:27:06;;;;;;;4.50;1.95;;;6.30;99.90;;;;;;5117801;28;20208;-89
2022/02/16 00:29:33;;;;;;;4.18;1.40;;;6.30;99.90;;;;;;5112675;28;20561;-88
2022/02/16 00:32:00;;;;;;;4.30;1.92;;;6.40;99.90;;;;;;5110520;28;20230;-88
2022/02/16 00:34:27;;;;;;;4.35;1.60;;;6.70;99.90;;;;;;5118748;28;20214;-89
2022/02/16 00:36:55;;;;;;;4.32;1.20;;;6.80;99.90;;;;;;5105680;28;20251;-89
2022/02/16 00:39:22;;;;;;;4.30;1.67;;;6.90;99.90;;;;;;5109076;28;20200;-88
2022/02/16 00:41:49;;;;;;;5.00;1.38;;;6.90;99.90;;;;;;5114749;28;20585;-88
2022/02/16 00:44:17;;;;;;;7.25;2.10;;;6.60;99.90;;;;;;5107098;28;20264;-89
2022/02/16 00:46:44;;;;;;;7.95;1.35;;;6.90;99.90;;;;;;5101021;28;20737;-89
2022/02/16 00:49:11;;;;;;;4.18;1.45;;;6.50;99.90;;;;;;5105979;28;20215;-90
2022/02/16 00:51:38;;;;;;;2.60;1.30;;;6.90;99.90;;;;;;5109065;28;20228;-89
2022/02/16 00:54:05;;;;;;;4.25;1.35;;;6.90;99.90;;;;;;5115504;28;20211;-89
2022/02/16 00:56:32;;;;;;;5.07;1.40;;;6.90;99.90;;;;;;5118523;28;20226;-89
2022/02/16 00:58:58;;;;;;;4.22;1.50;;;7.00;99.90;;;;;;5117176;28;20279;-88
2022/02/16 01:01:27;;;;;;;3.72;1.50;;;6.70;99.90;;;;;;5106865;28;20203;-89
2022/02/16 01:03:54;;;;;;;3.10;1.27;;;7.00;99.90;;;;;;5109071;28;20222;-89
2022/02/16 01:06:21;;;;;;;5.25;1.83;;;6.70;99.90;;;;;;5106509;28;20254;-88
2022/02/16 01:08:48;;;;;;;4.25;1.20;;;6.60;99.90;;;;;;5111017;28;20233;-89
2022/02/16 01:11:15;;;;;;;3.90;1.42;;;6.70;99.90;;;;;;5107571;28;20271;-88
2022/02/16 01:13:42;;;;;;;3.58;1.30;;;7.00;99.90;;;;;;5106006;28;20249;-88
2022/02/16 01:16:09;;;;;;;5.85;2.00;;;6.70;99.90;;;;;;5105326;28;20242;-88
2022/02/16 01:18:37;;;;;;;4.93;1.60;;;7.10;99.90;;;;;;5104212;28;20290;-88
2022/02/16 01:21:04;;;;;;;6.00;1.58;;;6.60;99.90;;;;;;5105114;28;20211;-89
2022/02/16 01:23:31;;;;;;;5.63;1.70;;;7.00;99.90;;;;;;5108204;28;20652;-88
2022/02/16 01:25:58;;;;;;;3.67;1.70;;;6.80;99.90;;;;;;5107560;28;20595;-90
2022/02/16 01:28:25;;;;;;;3.43;1.43;;;7.30;99.90;;;;;;5105000;28;20446;-89
2022/02/16 01:30:52;;;;;;;2.97;1.35;;;7.10;99.90;;;;;;5104054;28;20485;-88
2022/02/16 01:33:19;;;;;;;4.15;1.25;;;7.30;99.90;;;;;;5105425;28;20226;-89
2022/02/16 01:35:47;;;;;;;2.88;1.20;;;7.30;99.90;;;;;;5105316;28;20777;-89
2022/02/16 01:38:14;;;;;;;4.10;1.45;;;7.40;99.90;;;;;;5107547;28;20282;-88
2022/02/16 01:40:41;;;;;;;5.20;1.40;;;7.30;99.90;;;;;;5114589;28;20204;-88
2022/02/16 01:43:08;;;;;;;6.15;1.70;;;7.30;99.90;;;;;;5114548;28;20206;-88
2022/02/16 01:45:37;;;;;;;3.53;1.40;;;6.90;99.90;;;;;;5114661;28;20272;-88
2022/02/16 01:48:05;;;;;;;4.53;1.40;;;7.40;99.90;;;;;;5105793;28;20215;-88
2022/02/16 01:50:32;;;;;;;4.25;1.50;;;7.40;99.90;;;;;;5106741;28;20234;-88
2022/02/16 01:53:00;;;;;;;5.07;1.40;;;7.40;99.90;;;;;;5112828;28;20207;-89
2022/02/16 01:55:27;;;;;;;4.05;1.40;;;7.40;99.90;;;;;;5103396;28;20206;-89
2022/02/16 01:57:55;;;;;;;2.92;1.13;;;7.40;99.90;;;;;;5114131;28;20219;-88
2022/02/16 02:00:22;;;;;;;3.25;1.17;;;7.20;99.90;;;;;;5114156;28;20218;-88
2022/02/16 02:02:49;;;;;;;4.63;1.70;;;7.50;99.90;;;;;;5110912;28;20288;-88
2022/02/16 02:05:16;;;;;;;3.15;1.23;;;7.40;99.90;;;;;;5109528;28;20641;-88
2022/02/16 02:07:43;;;;;;;3.83;1.65;;;7.20;99.90;;;;;;5114725;28;20224;-88
2022/02/16 02:10:12;;;;;;;5.05;1.85;;;7.50;99.90;;;;;;5115342;28;20287;-88
2022/02/16 02:12:46;;;;;;;3.15;1.00;;;7.20;99.90;;;;;;5119226;28;20237;-88
2022/02/16 02:15:23;;;;;;;3.83;1.27;;;7.00;99.90;;;;;;5108001;28;20195;-88
2022/02/16 02:17:50;;;;;;;3.67;1.50;;;7.50;99.90;;;;;;5106494;28;20238;-89
2022/02/16 02:20:23;;;;;;;4.28;1.52;;;7.50;99.90;;;;;;5106768;28;20237;-89
2022/02/16 02:22:50;;;;;;;5.57;1.60;;;7.10;99.90;;;;;;5101461;28;20224;-89
2022/02/16 02:25:17;;;;;;;2.83;1.20;;;7.40;99.90;;;;;;5101437;28;20221;-89
2022/02/16 02:27:44;;;;;;;6.20;1.35;;;7.10;99.90;;;;;;5102227;28;20227;-89
2022/02/16 02:30:15;;;;;;;3.80;1.40;;;7.40;99.90;;;;;;5102514;28;22095;-89
2022/02/16 02:32:42;;;;;;;2.95;1.00;;;7.40;99.90;;;;;;5103961;28;20211;-89
2022/02/16 02:35:14;;;;;;;2.97;1.10;;;7.50;99.90;;;;;;5103961;28;20646;-89
2022/02/16 02:37:44;;;;;;;4.57;1.75;;;7.50;99.90;;;;;;5103431;28;20230;-89
2022/02/16 02:40:11;;;;;;;3.67;1.20;;;7.50;99.90;;;;;;5101981;28;20195;-89
2022/02/16 02:42:39;;;;;;;3.33;1.20;;;7.40;99.90;;;;;;5102383;28;20306;-89
2022/02/16 02:45:07;;;;;;;3.70;1.13;;;7.20;99.90;;;;;;5101391;28;20444;-90
2022/02/16 02:47:34;;;;;;;3.17;1.23;;;7.50;99.90;;;;;;5101361;28;20646;-89
2022/02/16 02:50:01;;;;;;;2.67;1.33;;;7.50;99.90;;;;;;5126458;22;20318;-85
2022/02/16 02:52:30;;;;;;;4.43;2.30;;;7.50;99.90;;;;;;5105276;28;20299;-85
2022/02/16 02:55:00;;;;;;;3.70;1.13;;;7.60;99.90;;;;;;5104742;28;20235;-84
2022/02/16 02:57:27;;;;;;;3.50;1.20;;;7.50;99.90;;;;;;5105241;28;20441;-85
2022/02/16 02:59:54;;;;;;;3.30;0.93;;;7.60;99.90;;;;;;5108114;28;20232;-85
2022/02/16 03:02:24;;;;;;;5.32;0.93;;;7.20;99.90;;;;;;5124268;28;20205;-85
2022/02/16 03:04:51;;;;;;;3.47;1.20;;;7.50;99.90;;;;;;5124111;28;20192;-85
2022/02/16 03:07:22;;;;;;;4.78;1.15;;;7.50;99.90;;;;;;5128075;28;20211;-85
2022/02/16 03:09:49;;;;;;;4.80;1.00;;;7.50;99.90;;;;;;5126534;28;20223;-85
2022/02/16 03:12:17;;;;;;;3.40;1.20;;;7.50;99.90;;;;;;5129069;28;20226;-85
2022/02/16 03:14:45;;;;;;;3.85;0.90;;;7.70;99.90;;;;;;5138168;28;20470;-85
2022/02/16 03:17:12;;;;;;;5.37;1.30;;;7.30;99.90;;;;;;5127455;28;20266;-84
2022/02/16 03:19:39;;;;;;;4.70;1.38;;;7.10;99.90;;;;;;5124276;28;20458;-85
2022/02/16 03:22:06;;;;;;;3.22;1.00;;;7.60;99.90;;;;;;5122914;28;20206;-84
2022/02/16 03:24:34;;;;;;;3.90;1.00;;;7.60;99.90;;;;;;5122768;28;20207;-84
2022/02/16 03:27:01;;;;;;;2.40;0.90;;;7.30;99.90;;;;;;5123750;28;20228;-84
2022/02/16 03:29:29;;;;;;;3.22;1.05;;;7.60;99.90;;;;;;5122630;28;20280;-84
2022/02/16 03:31:57;;;;;;;8.43;1.02;;;7.50;99.90;;;;;;5125466;28;20733;-84
2022/02/16 03:34:24;;;;;;;7.03;1.20;;;7.70;99.90;;;;;;5131801;28;20215;-85
2022/02/16 03:36:51;;;;;;;8.15;1.23;;;7.60;99.90;;;;;;5131298;28;20445;-85
2022/02/16 03:39:18;;;;;;;3.95;0.82;;;7.50;99.90;;;;;;5120018;28;20302;-85
2022/02/16 03:41:45;;;;;;;5.30;1.10;;;7.60;99.90;;;;;;5121063;28;20228;-85
2022/02/16 03:44:12;;;;;;;6.13;1.30;;;7.40;99.90;;;;;;5120851;28;20212;-84
2022/02/16 03:46:40;;;;;;;4.20;1.40;;;7.60;99.90;;;;;;5124131;28;20221;-85
2022/02/16 03:49:07;;;;;;;5.20;1.15;;;7.60;99.90;;;;;;5138307;28;20318;-85
2022/02/16 03:51:34;;;;;;;3.00;1.10;;;7.70;99.90;;;;;;5137687;28;20237;-85
2022/02/16 03:54:01;;;;;;;3.30;1.00;;;7.70;99.90;;;;;;5123500;28;20207;-85
2022/02/16 03:56:28;;;;;;;3.63;0.93;;;7.70;99.90;;;;;;5124060;28;20214;-85
2022/02/16 03:58:54;;;;;;;2.83;1.10;;;7.20;99.90;;;;;;5135783;28;20229;-85
2022/02/16 04:01:21;;;;;;;2.72;0.90;;;7.50;99.90;;;;;;5135993;28;20894;-84
2022/02/16 04:03:51;;;;;;;3.50;0.95;;;7.60;99.90;;;;;;5127288;28;20206;-86
2022/02/16 04:06:18;;;;;;;8.07;1.30;;;7.80;99.90;;;;;;5124246;28;20289;-85
2022/02/16 04:08:45;;;;;;;3.10;0.98;;;7.40;99.90;;;;;;5121424;28;20211;-85
2022/02/16 04:11:12;;;;;;;2.60;0.90;;;7.80;99.90;;;;;;5120481;28;20268;-86
2022/02/16 04:13:39;;;;;;;4.97;1.10;;;7.70;99.90;;;;;;5120709;28;20457;-86
2022/02/16 04:16:06;;;;;;;2.78;0.90;;;7.70;99.90;;;;;;5120399;28;20215;-85
2022/02/16 04:18:33;;;;;;;3.58;1.00;;;7.30;99.90;;;;;;5121269;28;20206;-85
2022/02/16 04:21:02;;;;;;;2.80;0.90;;;7.40;99.90;;;;;;5120778;28;20302;-85
2022/02/16 04:23:29;;;;;;;2.50;0.80;;;7.70;99.90;;;;;;5120842;28;20290;-85
2022/02/16 04:25:56;;;;;;;2.85;1.02;;;7.70;99.90;;;;;;5121383;28;20207;-85
2022/02/16 04:28:25;;;;;;;3.30;1.00;;;7.80;99.90;;;;;;5121622;28;20210;-85
2022/02/16 04:30:51;;;;;;;2.85;1.08;;;7.90;99.90;;;;;;5125193;28;20228;-85
2022/02/16 04:33:18;;;;;;;3.92;0.90;;;7.70;99.90;;;;;;5121422;28;20718;-85
2022/02/16 04:35:45;;;;;;;2.90;0.90;;;7.90;99.90;;;;;;5120750;28;20223;-85
2022/02/16 04:38:13;;;;;;;4.10;1.05;;;8.00;99.90;;;;;;5121455;28;20210;-85
2022/02/16 04:40:40;;;;;;;2.40;0.80;;;8.00;99.90;;;;;;5132821;28;20262;-85
2022/02/16 04:43:07;;;;;;;2.47;0.80;;;7.70;99.90;;;;;;5128469;28;20452;-86
2022/02/16 04:45:35;;;;;;;2.97;0.83;;;8.00;99.90;;;;;;5122291;28;20623;-85
2022/02/16 04:48:04;;;;;;;3.38;0.88;;;8.00;99.90;;;;;;5120344;28;20444;-84
2022/02/16 04:50:31;;;;;;;3.60;0.80;;;8.00;99.90;;;;;;5120208;28;20258;-84
2022/02/16 04:52:58;;;;;;;2.30;0.60;;;8.10;99.90;;;;;;5119803;28;20223;-85
2022/02/16 04:55:28;;;;;;;5.90;0.90;;;7.90;99.90;;;;;;5121175;28;20241;-85
2022/02/16 04:57:55;;;;;;;3.13;0.70;;;8.00;99.90;;;;;;5120237;28;20740;-85
2022/02/16 05:00:24;;;;;;;2.77;0.70;;;7.80;99.90;;;;;;5119384;28;20554;-85
2022/02/16 05:02:51;;;;;;;2.93;0.70;;;8.00;99.90;;;;;;5121036;28;20445;-85
2022/02/16 05:05:18;;;;;;;3.03;0.80;;;8.00;99.90;;;;;;5134366;28;20455;-85
2022/02/16 05:07:45;;;;;;;4.13;0.73;;;8.10;99.90;;;;;;5131705;28;20293;-86
2022/02/16 05:10:11;;;;;;;2.90;0.70;;;8.10;99.90;;;;;;5121725;28;20246;-85
2022/02/16 05:12:41;;;;;;;3.08;0.80;;;8.10;99.90;;;;;;5126858;28;20329;-85
2022/02/16 05:15:09;;;;;;;2.67;0.68;;;8.00;99.90;;;;;;5125099;28;20207;-86
2022/02/16 05:17:36;;;;;;;2.65;0.73;;;7.90;99.90;;;;;;5122211;28;20298;-86
2022/02/16 05:20:04;;;;;;;4.15;0.85;;;7.90;99.90;;;;;;5120974;28;20246;-85
2022/02/16 05:22:30;;;;;;;2.20;0.53;;;8.00;99.90;;;;;;5121672;28;20508;-85
2022/02/16 05:24:58;;;;;;;2.90;0.88;;;8.00;99.90;;;;;;5121652;28;20472;-85
2022/02/16 05:27:25;;;;;;;5.10;0.70;;;8.00;99.90;;;;;;5122202;28;20211;-85
2022/02/16 05:29:53;;;;;;;4.30;1.10;;;8.10;99.90;;;;;;5122389;28;20273;-85
2022/02/16 05:32:20;;;;;;;3.47;0.83;;;8.10;99.90;;;;;;5121566;28;20224;-85
2022/02/16 05:34:47;;;;;;;2.77;0.80;;;8.10;99.90;;;;;;5122104;28;20438;-85
2022/02/16 05:37:14;;;;;;;3.40;0.80;;;7.90;99.90;;;;;;5122942;28;20453;-85
2022/02/16 05:39:40;;;;;;;3.22;0.98;;;8.00;99.90;;;;;;5123729;28;20541;-85
2022/02/16 05:42:08;;;;;;;3.87;0.80;;;7.80;99.90;;;;;;5126235;28;20291;-85
2022/02/16 05:44:35;;;;;;;2.30;0.60;;;8.00;99.90;;;;;;5127699;28;20488;-86
2022/02/16 05:47:04;;;;;;;2.97;0.97;;;8.20;99.90;;;;;;5123960;28;20456;-85
2022/02/16 05:49:31;;;;;;;2.80;0.75;;;8.20;99.90;;;;;;5123494;28;20536;-85
2022/02/16 05:51:57;;;;;;;3.05;0.85;;;8.00;99.90;;;;;;5123381;28;20211;-84
2022/02/16 05:54:24;;;;;;;2.28;0.75;;;8.00;99.90;;;;;;5122844;28;20302;-84
2022/02/16 05:56:51;;;;;;;2.30;0.60;;;8.20;99.90;;;;;;5124033;28;20596;-84
2022/02/16 05:59:18;;;;;;;3.70;1.10;;;8.00;99.90;;;;;;5123602;28;20221;-84
2022/02/16 06:01:45;;;;;;;3.80;1.23;;;8.30;99.90;;;;;;5123395;28;20235;-84
2022/02/16 06:04:16;;;;;;;3.17;0.80;;;8.00;99.90;;;;;;5123371;28;20211;-85
2022/02/16 06:06:43;;;;;;;2.43;0.70;;;8.10;99.90;;;;;;5123600;28;20441;-84
2022/02/16 06:09:10;;;;;;;2.40;0.83;;;8.10;99.90;;;;;;5123930;28;20442;-84
2022/02/16 06:11:37;;;;;;;3.00;0.95;;;8.10;99.90;;;;;;5122160;28;20514;-86
2022/02/16 06:14:06;;;;;;;3.25;1.00;;;8.00;99.90;;;;;;5122971;28;20291;-84
2022/02/16 06:16:33;;;;;;;3.90;0.87;;;8.10;99.90;;;;;;5123191;28;20212;-87
2022/02/16 06:19:00;;;;;;;2.87;0.70;;;8.00;99.90;;;;;;5122510;28;20462;-84
2022/02/16 06:21:29;;;;;;;2.87;0.77;;;8.10;99.90;;;;;;5122249;28;20465;-85
2022/02/16 06:23:55;;;;;;;2.47;0.97;;;8.20;99.90;;;;;;5125043;28;20440;-84
2022/02/16 06:26:24;;;;;;;2.63;0.80;;;8.10;99.90;;;;;;5124979;28;20521;-85
2022/02/16 06:28:51;;;;;;;3.00;0.90;;;8.10;99.90;;;;;;5122663;28;20536;-85
2022/02/16 06:31:18;;;;;;;2.30;0.60;;;8.30;99.90;;;;;;5121990;28;20524;-84
2022/02/16 06:33:45;;;;;;;3.03;1.00;;;7.90;99.90;;;;;;5122508;28;20453;-84
2022/02/16 06:36:12;;;;;;;2.53;0.70;;;8.20;99.90;;;;;;5122484;28;20539;-84
2022/02/16 06:38:40;;;;;;;2.70;1.00;;;8.10;99.90;;;;;;5122790;28;20204;-85
2022/02/16 06:41:07;;;;;;;2.37;0.87;;;7.80;99.90;;;;;;5122778;28;20904;-84
2022/02/16 06:43:34;;;;;;;2.40;0.73;;;8.10;99.90;;;;;;5123279;28;20427;-84
2022/02/16 06:46:01;;;;;;;4.28;0.85;;;8.10;99.90;;;;;;5125705;28;20525;-84
2022/02/16 06:48:28;;;;;;;2.63;1.03;;;8.10;99.90;;;;;;5136038;28;20251;-85
2022/02/16 06:50:55;;;;;;;2.60;0.90;;;7.90;99.90;;;;;;5139635;28;20499;-85
2022/02/16 06:53:22;;;;;;;2.50;0.80;;;8.10;99.90;;;;;;5135889;28;20488;-84
2022/02/16 06:55:50;;;;;;;3.07;1.00;;;8.10;99.90;;;;;;5134137;28;20442;-85
2022/02/16 06:58:18;;;;;;;4.30;1.03;;;8.20;99.90;;;;;;5140076;28;20505;-84
2022/02/16 07:00:45;;;;;;;2.33;0.80;;;8.00;99.90;;;;;;5138547;28;20501;-85
2022/02/16 07:03:13;;;;;;;3.53;0.80;;;8.20;99.90;;;;;;5127964;28;20437;-85
2022/02/16 07:05:40;;;;;;;2.80;0.80;;;8.00;99.90;;;;;;5124858;28;20449;-84
2022/02/16 07:08:08;;;;;;;3.00;0.87;;;8.20;99.90;;;;;;5124067;28;20448;-84
2022/02/16 07:10:35;;;;;;;2.90;0.85;;;8.10;99.90;;;;;;5131659;28;20476;-85
2022/02/16 07:13:03;;;;;;;4.90;1.00;;;8.30;99.90;;;;;;5131249;28;20215;-85
2022/02/16 07:15:31;;;;;;;3.78;0.88;;;8.30;99.90;;;;;;5125102;28;20231;-85
2022/02/16 07:18:00;;;;;;;5.03;1.00;;;8.30;99.90;;;;;;5134206;28;20194;-85
2022/02/16 07:20:28;;;;;;;3.58;1.02;;;8.60;99.90;;;;;;5139463;28;20228;-84
2022/02/16 07:22:55;;;;;;;4.10;1.53;;;8.40;99.90;;;;;;5137287;28;20775;-85
2022/02/16 07:25:24;;;;;;;2.30;0.80;;;8.30;99.90;;;;;;5136199;28;20502;-84
2022/02/16 07:27:51;;;;;;;2.53;0.60;;;7.90;99.90;;;;;;5135080;28;20219;-83
2022/02/16 07:30:19;;;;;;;2.90;0.90;;;8.30;99.90;;;;;;5132526;28;20250;-85
2022/02/16 07:32:46;;;;;;;3.00;1.10;;;8.00;99.90;;;;;;5134281;28;20461;-84
2022/02/16 07:35:13;;;;;;;2.65;0.80;;;7.90;99.90;;;;;;5130888;28;20449;-84
2022/02/16 07:37:40;;;;;;;2.50;0.80;;;8.40;99.90;;;;;;5132792;28;20264;-84
2022/02/16 07:40:11;;;;;;;3.27;1.00;;;8.20;99.90;;;;;;5128206;28;20902;-85
2022/02/16 07:42:38;;;;;;;4.03;1.10;;;8.30;99.90;;;;;;5123437;28;20436;-85
2022/02/16 07:45:06;;;;;;;2.97;0.90;;;8.30;99.90;;;;;;5121523;28;20347;-84
2022/02/16 07:47:34;;;;;;;2.20;0.73;;;8.30;99.90;;;;;;5121716;28;20210;-85
2022/02/16 07:50:02;;;;;;;2.93;0.70;;;8.30;99.90;;;;;;5123253;28;21031;-85
2022/02/16 07:52:31;;;;;;;3.03;1.07;;;8.30;99.90;;;;;;5130652;28;20996;-84
2022/02/16 07:54:58;;;;;;;2.90;0.90;;;8.10;99.90;;;;;;5135980;28;20457;-85
2022/02/16 07:57:25;;;;;;;3.40;0.97;;;8.20;99.90;;;;;;5133824;28;20278;-85
2022/02/16 07:59:52;;;;;;;3.10;0.95;;;8.10;99.90;;;;;;5124828;28;20500;-85
2022/02/16 08:02:19;;;;;;;4.30;0.95;;;8.10;99.90;;;;;;5122810;28;20687;-85
2022/02/16 08:04:47;;;;;;;2.63;1.00;;;8.00;99.90;;;;;;5125652;28;20637;-85
2022/02/16 08:07:14;;;;;;;2.90;1.05;;;8.00;99.90;;;;;;5123012;28;20448;-84
2022/02/16 08:09:41;;;;;;;3.47;1.10;;;8.30;99.90;;;;;;5122850;28;20239;-85
2022/02/16 08:12:08;;;;;;;2.45;0.90;;;8.10;99.90;;;;;;5121384;28;20219;-85
2022/02/16 08:14:36;;;;;;;2.80;1.03;;;8.10;99.90;;;;;;5120582;28;20208;-85
2022/02/16 08:17:03;;;;;;;7.40;0.90;;;7.90;99.90;;;;;;5121806;28;20460;-85
2022/02/16 08:19:30;;;;;;;2.45;0.90;;;8.10;99.90;;;;;;5121002;28;20697;-85
2022/02/16 08:21:59;;;;;;;2.67;0.90;;;8.20;99.90;;;;;;5121261;28;20202;-86
2022/02/16 08:24:26;;;;;;;3.37;1.30;;;8.10;99.90;;;;;;5126151;28;20230;-83
2022/02/16 08:26:54;;;;;;;4.03;1.13;;;8.10;99.90;;;;;;5127067;28;20981;-85
2022/02/16 08:29:23;;;;;;;3.27;1.20;;;7.80;99.90;;;;;;5123778;28;20525;-87
2022/02/16 08:31:50;;;;;;;2.85;1.10;;;8.10;99.90;;;;;;5125853;28;20449;-86
2022/02/16 08:34:17;;;;;;;3.80;1.23;;;8.00;99.90;;;;;;5122119;28;20228;-85
2022/02/16 08:36:44;;;;;;;3.58;1.13;;;8.20;99.90;;;;;;5121472;28;20884;-86
2022/02/16 08:39:12;;;;;;;2.83;1.00;;;8.20;99.90;;;;;;5122114;28;20203;-84
2022/02/16 08:41:39;;;;;;;4.07;1.20;;;8.20;99.90;;;;;;5121632;28;21050;-84
2022/02/16 08:44:06;;;;;;;2.72;0.90;;;8.20;99.90;;;;;;5119911;28;20520;-84
2022/02/16 08:46:33;;;;;;;3.47;0.95;;;8.20;99.90;;;;;;5121131;28;20275;-85
2022/02/16 08:49:01;;;;;;;3.00;0.90;;;8.30;99.90;;;;;;5124269;28;20286;-84
2022/02/16 08:51:29;;;;;;;4.27;1.20;;;8.20;99.90;;;;;;5134729;22;20506;-89
2022/02/16 08:53:56;;;;;;;2.60;1.00;;;7.80;99.90;;;;;;5112355;28;20553;-88
2022/02/16 08:56:25;;;;;;;3.42;1.05;;;8.30;99.90;;;;;;5114908;28;20420;-87
2022/02/16 08:58:52;;;;;;;2.50;0.90;;;8.20;99.90;;;;;;5113356;28;20211;-89
2022/02/16 09:01:19;;;;;;;3.70;1.20;;;8.00;99.90;;;;;;5126533;28;20487;-87
2022/02/16 09:03:46;;;;;;;3.50;1.30;;;8.10;99.90;;;;;;5136370;28;20226;-88
2022/02/16 09:06:12;;;;;;;3.42;1.20;;;8.10;99.90;;;;;;5130090;28;20503;-88
2022/02/16 09:08:39;;;;;;;3.50;1.10;;;7.90;99.90;;;;;;5130839;28;20220;-89
2022/02/16 09:11:06;;;;;;;4.20;1.10;;;8.20;99.90;;;;;;5130286;28;20496;-88
2022/02/16 09:13:34;;;;;;;3.03;1.10;;;7.70;99.90;;;;;;5128391;28;20499;-89
2022/02/16 09:16:01;;;;;;;4.55;1.20;;;7.80;99.90;;;;;;5127688;28;20447;-88
2022/02/16 09:18:28;;;;;;;2.50;0.80;;;7.80;99.90;;;;;;5125561;28;20238;-89
2022/02/16 09:20:55;;;;;;;2.83;0.80;;;7.90;99.90;;;;;;5127636;28;20230;-87
2022/02/16 09:23:22;;;;;;;2.40;0.80;;;8.20;99.90;;;;;;5128057;28;20209;-86
2022/02/16 09:25:49;;;;;;;2.57;0.97;;;8.20;99.90;;;;;;5127249;28;20484;-88
2022/02/16 09:28:16;;;;;;;4.40;1.15;;;8.00;99.90;;;;;;5130622;28;20509;-88
2022/02/16 09:30:44;;;;;;;3.30;0.97;;;8.40;99.90;;;;;;5137097;28;20283;-90
2022/02/16 09:33:11;;;;;;;2.73;0.97;;;8.40;99.90;;;;;;5133493;28;20498;-87
2022/02/16 09:35:39;;;;;;;2.90;1.00;;;8.40;99.90;;;;;;5130073;28;20445;-88
2022/02/16 09:38:06;;;;;;;2.80;0.90;;;8.50;99.90;;;;;;5133831;28;20246;-89
2022/02/16 09:40:33;;;;;;;3.80;1.10;;;8.50;99.90;;;;;;5130903;28;20469;-89
2022/02/16 09:43:02;;;;;;;3.60;1.58;;;8.50;99.90;;;;;;5132896;28;20489;-89
2022/02/16 09:45:31;;;;;;;3.37;1.23;;;8.50;99.90;;;;;;5125443;28;20273;-88
2022/02/16 09:48:00;;;;;;;4.10;1.10;;;8.20;99.90;;;;;;5126098;28;20457;-89
2022/02/16 09:50:27;;;;;;;3.50;1.60;;;8.60;99.90;;;;;;5127647;28;20461;-87
2022/02/16 09:52:54;;;;;;;2.37;0.80;;;8.60;99.90;;;;;;5125431;28;20476;-88
2022/02/16 09:55:24;;;;;;;3.50;0.67;;;8.60;99.90;;;;;;5126321;28;20469;-88
2022/02/16 09:57:51;;;;;;;2.90;0.83;;;8.70;99.90;;;;;;5125618;28;20461;-88
2022/02/16 10:00:18;;;;;;;2.60;1.10;;;8.80;99.90;;;;;;5127957;28;20456;-90
2022/02/16 10:02:47;;;;;;;2.57;0.80;;;8.70;99.90;;;;;;5130445;28;20203;-88
2022/02/16 10:05:18;;;;;;;2.70;0.93;;;8.70;99.90;;;;;;5128337;28;20445;-90
2022/02/16 10:07:47;;;;;;;3.30;0.95;;;8.80;99.90;;;;;;5126886;28;20441;-88
2022/02/16 10:10:19;;;;;;;3.03;0.87;;;8.90;99.90;;;;;;5129212;28;20196;-88
2022/02/16 10:12:48;;;;;;;2.37;0.63;;;9.00;99.90;;;;;;5133164;28;20472;-88
2022/02/16 10:15:18;;;;;;;2.93;0.90;;;9.00;99.90;;;;;;5133244;28;20516;-89
2022/02/16 10:17:45;;;;;;;2.63;0.80;;;9.00;99.90;;;;;;5129968;28;20446;-89
2022/02/16 10:20:16;;;;;;;3.00;0.90;;;9.10;99.90;;;;;;5135839;28;20453;-89
2022/02/16 10:22:47;;;;;;;2.83;0.70;;;9.20;99.90;;;;;;5135695;28;20462;-88
2022/02/16 10:25:17;;;;;;;2.80;1.10;;;9.20;99.90;;;;;;5132120;28;20446;-87
2022/02/16 10:28:05;;;;;;;2.93;0.90;;;9.30;99.90;;;;;;5136953;28;20476;-88
2022/02/16 10:30:32;;;;;;;2.70;0.93;;;9.30;99.90;;;;;;5140183;28;20478;-86
2022/02/16 10:33:23;;;;;;;2.57;0.80;;;9.40;99.90;;;;;;5136097;28;20542;-88
2022/02/16 10:35:50;;;;;;;2.70;0.90;;;9.40;99.90;;;;;;5130886;28;20449;-89
2022/02/16 10:38:19;;;;;;;3.00;0.83;;;9.50;99.90;;;;;;5127205;28;20440;-89
2022/02/16 10:41:00;;;;;;;2.83;0.93;;;9.40;99.90;;;;;;5123732;28;20446;-89
2022/02/16 10:43:38;;;;;;;2.57;0.70;;;9.40;99.90;;;;;;5124017;28;20446;-88
2022/02/16 10:46:18;;;;;;;2.47;0.80;;;9.40;99.90;;;;;;5127210;28;20422;-89
2022/02/16 10:48:48;;;;;;;2.37;0.80;;;9.50;99.90;;;;;;5129750;28;20432;-88
2022/02/16 10:51:25;;;;;;;2.77;1.00;;;9.50;99.90;;;;;;5130231;28;20474;-87
2022/02/16 10:54:11;;;;;;;2.70;0.73;;;9.60;99.90;;;;;;5130119;28;20792;-88
2022/02/16 10:56:39;;;;;;;2.40;0.77;;;9.70;99.90;;;;;;5135590;28;20517;-87
2022/02/16 10:59:06;;;;;;;3.63;0.87;;;9.80;99.90;;;;;;5125153;28;20463;-89
2022/02/16 11:01:35;;;;;;;2.60;0.80;;;9.80;99.90;;;;;;5128561;28;20473;-88
2022/02/16 11:04:08;;;;;;;2.67;0.73;;;9.90;99.90;;;;;;5135755;28;20498;-90
2022/02/16 11:06:37;;;;;;;2.80;0.70;;;10.00;99.90;;;;;;5137920;28;20767;-88
2022/02/16 11:09:08;;;;;;;2.90;1.10;;;10.10;99.90;;;;;;5128347;28;20550;-89
2022/02/16 11:11:41;;;;;;;2.40;0.60;;;10.20;99.90;;;;;;5126448;28;20462;-89
2022/02/16 11:14:09;;;;;;;2.77;1.00;;;10.30;99.90;;;;;;5127455;28;20482;-87
2022/02/16 11:16:41;;;;;;;3.67;0.80;;;10.40;99.90;;;;;;5130852;28;20421;-87
2022/02/16 11:19:35;;;;;;;;;;;;;;;;;;;;;
2022/02/16 11:22:10;;;;;;;2.70;0.90;;;10.50;99.90;;;;;;5131140;28;20489;-87
2022/02/16 11:24:41;;;;;;;2.90;0.97;;;10.70;99.90;;;;;;5130429;28;20549;-88
2022/02/16 11:27:26;;;;;;;2.83;1.00;;;10.80;99.90;;;;;;5129661;28;20468;-89
2022/02/16 11:29:54;;;;;;;5.33;1.00;;;10.70;99.90;;;;;;5128073;28;20473;-88
2022/02/16 11:32:25;;;;;;;3.60;0.83;;;10.90;99.90;;;;;;5128743;28;20421;-87
2022/02/16 11:35:12;;;;;;;4.30;1.40;;;10.90;99.90;;;;;;5133452;28;20492;-88
2022/02/16 11:37:46;;;;;;;2.90;1.17;;;11.10;99.90;;;;;;5121401;28;20442;-88
2022/02/16 11:40:19;;;;;;;2.73;0.70;;;11.40;99.90;;;;;;5135777;28;20480;-87
2022/02/16 11:42:59;;;;;;;2.70;0.70;;;11.40;99.90;;;;;;5129276;28;20478;-88
2022/02/16 11:45:48;;;;;;;3.73;1.60;;;11.50;99.90;;;;;;5126391;28;20442;-90
2022/02/16 11:48:48;;;;;;;4.00;1.10;;;11.60;99.90;;;;;;5123901;28;20465;-87
2022/02/16 11:51:36;;;;;;;3.57;1.20;;;11.60;99.90;;;;;;5126064;28;20545;-88
2022/02/16 11:54:58;;;;;;;2.50;0.80;;;11.60;99.90;;;;;;5130386;28;20484;-87
2022/02/16 11:57:43;;;;;;;6.40;1.90;;;11.60;99.90;;;;;;5133412;28;20442;-88
2022/02/16 12:00:26;;;;;;;2.47;0.70;;;11.70;99.90;;;;;;5134799;28;20829;-88
2022/02/16 12:03:20;;;;;;;4.27;1.03;;;11.60;99.90;;;;;;5134596;28;20424;-87
2022/02/16 12:06:07;;;;;;;3.30;1.20;;;11.70;99.90;;;;;;5130231;28;20450;-87
2022/02/16 12:09:02;;;;;;;2.90;1.27;;;11.60;99.90;;;;;;5124793;28;20434;-88
2022/02/16 12:11:29;;;;;;;3.20;1.00;;;11.70;99.90;;;;;;5125071;28;20494;-87
2022/02/16 12:14:02;;;;;;;4.20;1.03;;;11.70;99.90;;;;;;5132536;28;20482;-88
2022/02/16 12:16:35;;;;;;;3.07;0.70;;;11.80;99.90;;;;;;5130710;28;20426;-88
2022/02/16 12:19:09;;;;;;;2.40;0.80;;;11.80;99.90;;;;;;5130233;28;20488;-89
2022/02/16 12:25:51;;;;;;;3.27;1.30;;;11.70;99.90;;;;;;5016455;28;20945;-89
2022/02/16 12:32:27;;;;;;;2.50;0.80;;;11.70;99.90;;;;;;5020883;28;20536;-89
2022/02/16 12:38:36;;;;;;;3.07;1.00;;;11.80;99.90;;;;;;4886504;29;20430;-89
2022/02/16 12:41:08;;;;;;;5.30;1.20;;;11.70;99.90;;;;;;5038378;28;20455;-89
2022/02/16 12:43:35;;;;;;;2.47;0.80;;;11.70;99.90;;;;;;5123705;28;20815;-89
2022/02/16 12:46:03;;;;;;;3.10;0.87;;;11.70;99.90;;;;;;5123190;28;20503;-89
2022/02/16 12:48:30;;;;;;;3.10;1.00;;;11.70;99.90;;;;;;5121543;28;20567;-89
2022/02/16 12:51:04;;;;;;;3.07;1.10;;;11.70;99.90;;;;;;5123281;28;20444;-89
2022/02/16 12:53:39;;;;;;;2.37;0.63;;;11.80;99.90;;;;;;5125517;28;20456;-87
2022/02/16 12:56:11;;;;;;;2.97;0.83;;;11.70;99.90;;;;;;5123929;28;20481;-90
2022/02/16 12:58:42;;;;;;;2.63;0.60;;;11.70;99.90;;;;;;5123183;28;20458;-89
2022/02/16 13:01:09;;;;;;;3.07;1.03;;;11.70;99.90;;;;;;5124695;28;20503;-89
2022/02/16 13:03:37;;;;;;;2.80;0.70;;;11.70;99.90;;;;;;5122743;28;20544;-89
2022/02/16 13:06:06;;;;;;;3.17;1.27;;;11.70;99.90;;;;;;5124165;28;20462;-87
2022/02/16 13:08:33;;;;;;;2.77;0.70;;;11.70;99.90;;;;;;5125100;28;20448;-89
2022/02/16 13:11:02;;;;;;;2.40;0.60;;;11.70;99.90;;;;;;5130216;28;20474;-90
2022/02/16 13:13:32;;;;;;;2.40;0.80;;;11.70;99.90;;;;;;5122207;28;20494;-89
2022/02/16 13:16:05;;;;;;;2.20;0.60;;;11.80;99.90;;;;;;5125340;28;20880;-89
2022/02/16 13:18:35;;;;;;;2.30;0.57;;;11.90;99.90;;;;;;5125974;28;20467;-88